sensor_id;sensor_type;location;lat;lon;timestamp;pressure;altitude;pressure_sealevel;temperature;humidity
50322;BME280;36227;53.366;-1.426;2023-05-22T00:02:01;76478.50;;;-215.39;87.02
50322;BME280;36227;53.366;-1.426;2023-05-22T00:04:26;76577.06;;;-214.91;92.91
50322;BME280;36227;53.366;-1.426;2023-05-22T00:06:52;76480.14;;;-215.15;93.60
50322;BME280;36227;53.366;-1.426;2023-05-22T00:09:17;76510.22;;;-214.91;93.32
50322;BME280;36227;53.366;-1.426;2023-05-22T00:11:43;76574.03;;;-215.39;98.71
50322;BME280;36227;53.366;-1.426;2023-05-22T00:14:08;76443.25;;;-215.63;94.32
50322;BME280;36227;53.366;-1.426;2023-05-22T00:16:34;76413.55;;;-215.39;93.89
50322;BME280;36227;53.366;-1.426;2023-05-22T00:18:59;76393.97;;;-215.63;92.43
50322;BME280;36227;53.366;-1.426;2023-05-22T00:21:30;76509.71;;;-215.15;94.21
50322;BME280;36227;53.366;-1.426;2023-05-22T00:23:50;76482.29;;;-215.39;92.20
50322;BME280;36227;53.366;-1.426;2023-05-22T00:26:17;76422.78;;;-215.39;93.07
50322;BME280;36227;53.366;-1.426;2023-05-22T00:28:42;76464.73;;;-214.91;92.85
50322;BME280;36227;53.366;-1.426;2023-05-22T00:31:08;76518.05;;;-214.91;91.81
50322;BME280;36227;53.366;-1.426;2023-05-22T00:33:33;76467.76;;;-215.63;90.58
50322;BME280;36227;53.366;-1.426;2023-05-22T00:35:58;76460.18;;;-215.39;90.35
50322;BME280;36227;53.366;-1.426;2023-05-22T00:38:30;76446.03;;;-215.39;90.70
50322;BME280;36227;53.366;-1.426;2023-05-22T00:40:54;76394.98;;;-215.63;90.30
50322;BME280;36227;53.366;-1.426;2023-05-22T00:43:13;76402.81;;;-215.39;87.72
50322;BME280;36227;53.366;-1.426;2023-05-22T00:45:50;76478.88;;;-215.15;93.58
50322;BME280;36227;53.366;-1.426;2023-05-22T00:48:05;76542.94;;;-215.15;98.68
50322;BME280;36227;53.366;-1.426;2023-05-22T00:50:30;76697.48;;;-214.43;100.00
50322;BME280;36227;53.366;-1.426;2023-05-22T00:52:54;76646.94;;;-214.43;100.00
50322;BME280;36227;53.366;-1.426;2023-05-22T00:55:27;76586.66;;;-215.39;100.00
50322;BME280;36227;53.366;-1.426;2023-05-22T00:57:46;76461.19;;;-215.39;100.00
50322;BME280;36227;53.366;-1.426;2023-05-22T01:00:13;76408.25;;;-215.39;96.71
50322;BME280;36227;53.366;-1.426;2023-05-22T01:02:36;76501.88;;;-215.15;98.05
50322;BME280;36227;53.366;-1.426;2023-05-22T01:05:03;76459.17;;;-215.15;96.69
50322;BME280;36227;53.366;-1.426;2023-05-22T01:07:28;76485.96;;;-214.91;98.27
50322;BME280;36227;53.366;-1.426;2023-05-22T01:09:52;76554.95;;;-214.67;100.00
50322;BME280;36227;53.366;-1.426;2023-05-22T01:12:23;76504.28;;;-214.91;99.94
50322;BME280;36227;53.366;-1.426;2023-05-22T01:14:47;76437.31;;;-215.15;96.55
50322;BME280;36227;53.366;-1.426;2023-05-22T01:17:15;76574.15;;;-215.15;100.00
50322;BME280;36227;53.366;-1.426;2023-05-22T01:19:49;76563.54;;;-214.91;100.00
50322;BME280;36227;53.366;-1.426;2023-05-22T01:22:06;76517.92;;;-214.91;100.00
50322;BME280;36227;53.366;-1.426;2023-05-22T01:29:25;76441.98;;;-215.15;97.19
50322;BME280;36227;53.366;-1.426;2023-05-22T01:31:42;76540.67;;;-214.67;99.37
50322;BME280;36227;53.366;-1.426;2023-05-22T01:34:10;76522.98;;;-214.91;98.36
50322;BME280;36227;53.366;-1.426;2023-05-22T01:36:33;76469.28;;;-214.91;99.83
50322;BME280;36227;53.366;-1.426;2023-05-22T01:38:59;76503.90;;;-214.91;100.00
50322;BME280;36227;53.366;-1.426;2023-05-22T01:41:23;76534.10;;;-215.39;100.00
50322;BME280;36227;53.366;-1.426;2023-05-22T01:43:48;76482.80;;;-215.15;100.00
50322;BME280;36227;53.366;-1.426;2023-05-22T01:46:13;76553.30;;;-214.91;100.00
50322;BME280;36227;53.366;-1.426;2023-05-22T01:48:39;76559.87;;;-214.91;100.00
50322;BME280;36227;53.366;-1.426;2023-05-22T01:51:09;76570.49;;;-214.67;100.00
50322;BME280;36227;53.366;-1.426;2023-05-22T01:53:32;76562.78;;;-214.91;100.00
50322;BME280;36227;53.366;-1.426;2023-05-22T01:56:00;76605.74;;;-214.67;100.00
50322;BME280;36227;53.366;-1.426;2023-05-22T01:58:28;76595.63;;;-214.43;100.00
50322;BME280;36227;53.366;-1.426;2023-05-22T02:00:47;76580.22;;;-214.43;100.00
50322;BME280;36227;53.366;-1.426;2023-05-22T02:03:15;76517.80;;;-215.63;100.00
50322;BME280;36227;53.366;-1.426;2023-05-22T02:05:38;76600.82;;;-214.91;100.00
50322;BME280;36227;53.366;-1.426;2023-05-22T02:08:03;76640.87;;;-214.67;100.00
50322;BME280;36227;53.366;-1.426;2023-05-22T02:56:39;76554.32;;;-214.91;100.00
50322;BME280;36227;53.366;-1.426;2023-05-22T02:59:10;76467.76;;;-214.91;100.00
50322;BME280;36227;53.366;-1.426;2023-05-22T03:01:34;76558.48;;;-214.67;100.00
50322;BME280;36227;53.366;-1.426;2023-05-22T03:03:58;76528.41;;;-214.43;100.00
50322;BME280;36227;53.366;-1.426;2023-05-22T03:06:12;76559.24;;;-214.67;100.00
50322;BME280;36227;53.366;-1.426;2023-05-22T03:08:38;76556.08;;;-214.43;100.00
50322;BME280;36227;53.366;-1.426;2023-05-22T03:11:04;76623.43;;;-215.15;100.00
50322;BME280;36227;53.366;-1.426;2023-05-22T03:13:29;76589.82;;;-215.15;100.00
50322;BME280;36227;53.366;-1.426;2023-05-22T03:15:54;76550.02;;;-214.91;100.00
50322;BME280;36227;53.366;-1.426;2023-05-22T03:18:48;76530.43;;;-214.91;100.00
50322;BME280;36227;53.366;-1.426;2023-05-22T03:23:11;76603.22;;;-214.91;100.00
50322;BME280;36227;53.366;-1.426;2023-05-22T03:25:36;76550.40;;;-214.91;100.00
50322;BME280;36227;53.366;-1.426;2023-05-22T03:28:01;76573.14;;;-214.67;100.00
50322;BME280;36227;53.366;-1.426;2023-05-22T03:30:26;76632.78;;;-214.43;100.00
50322;BME280;36227;53.366;-1.426;2023-05-22T03:32:52;76610.80;;;-214.91;100.00
50322;BME280;36227;53.366;-1.426;2023-05-22T03:35:17;76578.70;;;-215.39;100.00
50322;BME280;36227;53.366;-1.426;2023-05-22T03:37:42;76618.76;;;-214.91;100.00
50322;BME280;36227;53.366;-1.426;2023-05-22T03:40:08;76517.55;;;-215.15;100.00
50322;BME280;36227;53.366;-1.426;2023-05-22T03:42:33;76612.19;;;-214.91;100.00
50322;BME280;36227;53.366;-1.426;2023-05-22T03:44:58;76569.48;;;-214.67;100.00
50322;BME280;36227;53.366;-1.426;2023-05-22T03:47:24;76496.06;;;-214.91;100.00
50322;BME280;36227;53.366;-1.426;2023-05-22T03:49:50;76548.76;;;-214.67;100.00
50322;BME280;36227;53.366;-1.426;2023-05-22T03:52:15;76413.81;;;-214.91;100.00
50322;BME280;36227;53.366;-1.426;2023-05-22T03:54:41;76529.42;;;-215.15;100.00
50322;BME280;36227;53.366;-1.426;2023-05-22T03:57:06;76558.99;;;-215.39;100.00
50322;BME280;36227;53.366;-1.426;2023-05-22T03:59:31;76511.23;;;-214.91;100.00
50322;BME280;36227;53.366;-1.426;2023-05-22T04:01:58;76608.52;;;-214.67;100.00
50322;BME280;36227;53.366;-1.426;2023-05-22T04:04:23;76618.13;;;-214.67;100.00
50322;BME280;36227;53.366;-1.426;2023-05-22T04:06:55;76576.81;;;-214.91;100.00
50322;BME280;36227;53.366;-1.426;2023-05-22T04:11:42;76488.61;;;-215.15;100.00
50322;BME280;36227;53.366;-1.426;2023-05-22T04:31:19;76552.29;;;-214.67;95.29
50322;BME280;36227;53.366;-1.426;2023-05-22T04:33:28;76526.52;;;-215.15;92.61
50322;BME280;36227;53.366;-1.426;2023-05-22T05:00:10;76524.75;;;-214.91;88.60
50322;BME280;36227;53.366;-1.426;2023-05-22T05:02:34;76580.98;;;-215.15;88.26
50322;BME280;36227;53.366;-1.426;2023-05-22T05:04:59;76520.20;;;-214.91;86.88
50322;BME280;36227;53.366;-1.426;2023-05-22T05:07:25;76508.70;;;-214.91;85.48
50322;BME280;36227;53.366;-1.426;2023-05-22T05:14:41;76477.74;;;-214.91;84.40
50322;BME280;36227;53.366;-1.426;2023-05-22T05:17:14;76471.68;;;-215.15;85.05
50322;BME280;36227;53.366;-1.426;2023-05-22T05:19:33;76413.55;;;-214.91;82.27
50322;BME280;36227;53.366;-1.426;2023-05-22T05:21:59;76547.37;;;-214.91;84.71
50322;BME280;36227;53.366;-1.426;2023-05-22T05:24:24;76454.11;;;-215.87;85.20
50322;BME280;36227;53.366;-1.426;2023-05-22T05:26:49;76543.95;;;-215.39;88.70
50322;BME280;36227;53.366;-1.426;2023-05-22T05:29:14;76476.61;;;-215.15;85.04
50322;BME280;36227;53.366;-1.426;2023-05-22T05:31:42;76478.75;;;-214.91;85.40
50322;BME280;36227;53.366;-1.426;2023-05-22T05:36:31;76532.46;;;-215.15;86.60
50322;BME280;36227;53.366;-1.426;2023-05-22T05:38:56;76414.31;;;-215.39;86.22
50322;BME280;36227;53.366;-1.426;2023-05-22T05:43:46;76416.46;;;-215.39;81.71
50322;BME280;36227;53.366;-1.426;2023-05-22T05:46:12;76342.42;;;-216.11;80.32
50322;BME280;36227;53.366;-1.426;2023-05-22T05:48:37;76382.60;;;-215.87;76.63
50322;BME280;36227;53.366;-1.426;2023-05-22T05:58:18;76324.10;;;-215.87;72.62
50322;BME280;36227;53.366;-1.426;2023-05-22T06:00:43;76336.99;;;-215.87;70.67
50322;BME280;36227;53.366;-1.426;2023-05-22T06:03:09;76305.65;;;-215.87;68.55
50322;BME280;36227;53.366;-1.426;2023-05-22T06:05:34;76356.70;;;-215.63;68.91
50322;BME280;36227;53.366;-1.426;2023-05-22T06:07:59;76298.20;;;-215.87;68.33
50322;BME280;36227;53.366;-1.426;2023-05-22T06:10:25;76223.52;;;-215.87;68.05
50322;BME280;36227;53.366;-1.426;2023-05-22T06:12:50;76418.74;;;-216.35;70.84
50322;BME280;36227;53.366;-1.426;2023-05-22T06:15:15;76295.42;;;-216.35;68.51
50322;BME280;36227;53.366;-1.426;2023-05-22T06:17:40;76254.60;;;-215.87;66.54
50322;BME280;36227;53.366;-1.426;2023-05-22T06:20:07;76342.67;;;-215.87;67.71
50322;BME280;36227;53.366;-1.426;2023-05-22T06:22:31;76232.37;;;-215.87;66.55
50322;BME280;36227;53.366;-1.426;2023-05-22T06:24:56;76230.73;;;-216.11;67.07
50322;BME280;36227;53.366;-1.426;2023-05-22T06:27:21;76350.88;;;-215.39;67.03
50322;BME280;36227;53.366;-1.426;2023-05-22T06:29:46;76367.18;;;-215.39;68.22
50322;BME280;36227;53.366;-1.426;2023-05-22T06:32:12;76334.21;;;-215.39;66.51
50322;BME280;36227;53.366;-1.426;2023-05-22T06:34:37;76386.64;;;-215.63;68.14
50322;BME280;36227;53.366;-1.426;2023-05-22T06:37:02;76243.61;;;-216.83;65.12
50322;BME280;36227;53.366;-1.426;2023-05-22T06:39:27;76200.28;;;-216.35;64.83
50322;BME280;36227;53.366;-1.426;2023-05-22T06:41:53;76178.42;;;-216.35;61.94
50322;BME280;36227;53.366;-1.426;2023-05-22T06:44:18;76213.04;;;-216.35;60.10
50322;BME280;36227;53.366;-1.426;2023-05-22T06:46:43;76227.44;;;-216.11;62.17
50322;BME280;36227;53.366;-1.426;2023-05-22T06:49:08;76143.42;;;-216.35;57.97
50322;BME280;36227;53.366;-1.426;2023-05-22T06:51:33;76181.07;;;-216.11;58.01
50322;BME280;36227;53.366;-1.426;2023-05-22T06:53:58;76176.27;;;-216.11;58.97
50322;BME280;36227;53.366;-1.426;2023-05-22T06:56:24;76239.44;;;-216.11;61.99
50322;BME280;36227;53.366;-1.426;2023-05-22T06:58:49;76222.64;;;-216.35;59.92
50322;BME280;36227;53.366;-1.426;2023-05-22T07:01:14;76282.15;;;-216.35;61.97
50322;BME280;36227;53.366;-1.426;2023-05-22T07:03:39;76209.50;;;-216.35;60.89
50322;BME280;36227;53.366;-1.426;2023-05-22T07:06:05;76211.14;;;-216.11;61.17
50322;BME280;36227;53.366;-1.426;2023-05-22T07:08:30;76223.65;;;-215.87;60.24
50322;BME280;36227;53.366;-1.426;2023-05-22T07:10:55;76333.07;;;-215.39;65.32
50322;BME280;36227;53.366;-1.426;2023-05-22T07:13:21;76149.23;;;-216.11;59.58
50322;BME280;36227;53.366;-1.426;2023-05-22T07:15:46;76151.63;;;-216.11;57.87
50322;BME280;36227;53.366;-1.426;2023-05-22T07:18:11;76121.06;;;-216.35;56.76
50322;BME280;36227;53.366;-1.426;2023-05-22T07:20:36;76243.74;;;-215.87;60.70
50322;BME280;36227;53.366;-1.426;2023-05-22T07:23:02;76235.91;;;-216.83;60.75
50322;BME280;36227;53.366;-1.426;2023-05-22T07:25:26;76168.56;;;-216.59;59.02
50322;BME280;36227;53.366;-1.426;2023-05-22T07:27:51;76154.41;;;-216.35;58.02
50322;BME280;36227;53.366;-1.426;2023-05-22T07:30:17;76175.64;;;-216.35;58.42
50322;BME280;36227;53.366;-1.426;2023-05-22T07:35:08;76153.78;;;-216.11;59.25
50322;BME280;36227;53.366;-1.426;2023-05-22T07:37:32;76163.63;;;-215.87;58.70
50322;BME280;36227;53.366;-1.426;2023-05-22T07:39:57;76188.40;;;-215.87;59.44
50322;BME280;36227;53.366;-1.426;2023-05-22T07:42:22;76154.54;;;-215.63;58.39
50322;BME280;36227;53.366;-1.426;2023-05-22T07:44:48;76136.22;;;-216.11;57.11
50322;BME280;36227;53.366;-1.426;2023-05-22T07:47:13;76177.53;;;-216.35;57.26
50322;BME280;36227;53.366;-1.426;2023-05-22T07:49:38;76153.15;;;-216.11;59.59
50322;BME280;36227;53.366;-1.426;2023-05-22T07:52:04;76168.06;;;-215.87;59.70
50322;BME280;36227;53.366;-1.426;2023-05-22T07:54:29;76126.24;;;-215.87;56.58
50322;BME280;36227;53.366;-1.426;2023-05-22T07:56:54;76139.12;;;-215.87;55.75
50322;BME280;36227;53.366;-1.426;2023-05-22T07:59:19;76135.71;;;-216.11;56.05
50322;BME280;36227;53.366;-1.426;2023-05-22T08:01:44;76061.04;;;-216.11;54.81
50322;BME280;36227;53.366;-1.426;2023-05-22T08:04:09;76099.45;;;-216.11;54.30
50322;BME280;36227;53.366;-1.426;2023-05-22T08:06:35;76236.79;;;-215.39;60.35
50322;BME280;36227;53.366;-1.426;2023-05-22T08:09:00;76220.87;;;-216.11;59.18
50322;BME280;36227;53.366;-1.426;2023-05-22T08:11:25;76194.59;;;-215.87;58.76
50322;BME280;36227;53.366;-1.426;2023-05-22T08:13:50;76128.26;;;-216.11;58.81
50322;BME280;36227;53.366;-1.426;2023-05-22T08:16:16;76125.98;;;-216.11;59.53
50322;BME280;36227;53.366;-1.426;2023-05-22T08:18:41;76021.88;;;-216.35;55.32
50322;BME280;36227;53.366;-1.426;2023-05-22T08:21:06;76104.51;;;-216.35;58.42
50322;BME280;36227;53.366;-1.426;2023-05-22T08:23:31;76036.15;;;-216.35;53.96
50322;BME280;36227;53.366;-1.426;2023-05-22T08:25:57;76023.65;;;-216.11;54.28
50322;BME280;36227;53.366;-1.426;2023-05-22T08:28:22;76055.99;;;-216.35;55.41
50322;BME280;36227;53.366;-1.426;2023-05-22T08:30:48;76148.98;;;-216.11;58.19
50322;BME280;36227;53.366;-1.426;2023-05-22T08:33:12;76107.16;;;-216.35;57.18
50322;BME280;36227;53.366;-1.426;2023-05-22T08:35:37;76048.41;;;-216.59;52.96
50322;BME280;36227;53.366;-1.426;2023-05-22T08:38:02;76117.90;;;-215.87;54.61
50322;BME280;36227;53.366;-1.426;2023-05-22T08:40:33;76119.79;;;-215.87;57.34
50322;BME280;36227;53.366;-1.426;2023-05-22T08:42:53;76067.11;;;-216.35;55.54
50322;BME280;36227;53.366;-1.426;2023-05-22T08:45:18;75965.40;;;-216.59;51.82
50322;BME280;36227;53.366;-1.426;2023-05-22T08:47:43;76098.19;;;-216.11;55.71
50322;BME280;36227;53.366;-1.426;2023-05-22T08:50:09;75970.20;;;-216.59;54.75
50322;BME280;36227;53.366;-1.426;2023-05-22T08:52:39;76033.25;;;-216.35;58.07
50322;BME280;36227;53.366;-1.426;2023-05-22T08:54:59;75973.24;;;-217.30;56.05
50322;BME280;36227;53.366;-1.426;2023-05-22T08:57:24;75970.71;;;-216.83;54.04
50322;BME280;36227;53.366;-1.426;2023-05-22T08:59:50;76119.41;;;-216.35;57.88
50322;BME280;36227;53.366;-1.426;2023-05-22T09:02:15;75977.03;;;-216.59;57.15
50322;BME280;36227;53.366;-1.426;2023-05-22T09:04:40;75886.95;;;-216.83;54.12
50322;BME280;36227;53.366;-1.426;2023-05-22T09:07:04;75983.09;;;-216.59;56.63
50322;BME280;36227;53.366;-1.426;2023-05-22T09:09:30;76076.58;;;-216.11;59.50
50322;BME280;36227;53.366;-1.426;2023-05-22T09:11:55;76061.93;;;-216.11;60.58
50322;BME280;36227;53.366;-1.426;2023-05-22T09:14:20;76066.35;;;-215.87;61.78
50322;BME280;36227;53.366;-1.426;2023-05-22T09:16:47;76117.77;;;-216.35;61.23
50322;BME280;36227;53.366;-1.426;2023-05-22T09:19:11;75965.91;;;-216.83;59.80
50322;BME280;36227;53.366;-1.426;2023-05-22T09:21:36;75987.64;;;-216.59;58.87
50322;BME280;36227;53.366;-1.426;2023-05-22T09:24:01;76108.04;;;-216.35;60.08
50322;BME280;36227;53.366;-1.426;2023-05-22T09:26:26;76072.16;;;-216.11;58.78
50322;BME280;36227;53.366;-1.426;2023-05-22T09:28:52;76050.30;;;-216.11;57.89
50322;BME280;36227;53.366;-1.426;2023-05-22T09:31:16;76058.39;;;-216.35;57.13
50322;BME280;36227;53.366;-1.426;2023-05-22T09:33:43;75972.60;;;-216.35;56.08
50322;BME280;36227;53.366;-1.426;2023-05-22T09:36:08;75875.45;;;-216.83;52.81
50322;BME280;36227;53.366;-1.426;2023-05-22T09:38:33;75852.33;;;-216.83;52.71
50322;BME280;36227;53.366;-1.426;2023-05-22T09:40:58;75890.86;;;-217.30;49.57
50322;BME280;36227;53.366;-1.426;2023-05-22T09:43:23;75871.79;;;-217.30;48.53
50322;BME280;36227;53.366;-1.426;2023-05-22T09:45:48;75886.57;;;-216.83;48.84
50322;BME280;36227;53.366;-1.426;2023-05-22T09:48:15;76044.37;;;-216.11;55.21
50322;BME280;36227;53.366;-1.426;2023-05-22T09:50:38;75967.42;;;-216.35;53.12
50322;BME280;36227;53.366;-1.426;2023-05-22T09:53:04;75893.52;;;-216.83;51.18
50322;BME280;36227;53.366;-1.426;2023-05-22T09:55:29;75858.40;;;-216.83;51.53
50322;BME280;36227;53.366;-1.426;2023-05-22T09:57:53;75932.81;;;-216.83;52.95
50322;BME280;36227;53.366;-1.426;2023-05-22T10:00:18;75929.65;;;-216.59;53.53
50322;BME280;36227;53.366;-1.426;2023-05-22T10:02:45;75920.43;;;-216.83;54.15
50322;BME280;36227;53.366;-1.426;2023-05-22T10:05:09;75908.93;;;-217.07;51.71
50322;BME280;36227;53.366;-1.426;2023-05-22T10:07:36;75849.05;;;-216.83;51.68
50322;BME280;36227;53.366;-1.426;2023-05-22T10:10:03;75820.37;;;-217.07;49.38
50322;BME280;36227;53.366;-1.426;2023-05-22T10:12:27;75819.48;;;-217.07;49.10
50322;BME280;36227;53.366;-1.426;2023-05-22T10:14:50;75795.61;;;-217.07;49.23
50322;BME280;36227;53.366;-1.426;2023-05-22T10:17:15;75868.38;;;-216.83;47.81
50322;BME280;36227;53.366;-1.426;2023-05-22T10:19:40;75804.32;;;-216.83;43.52
50322;BME280;36227;53.366;-1.426;2023-05-22T10:22:05;75853.22;;;-216.83;43.28
50322;BME280;36227;53.366;-1.426;2023-05-22T10:24:30;75866.61;;;-216.59;42.95
50322;BME280;36227;53.366;-1.426;2023-05-22T10:26:56;75871.53;;;-217.30;38.57
50322;BME280;36227;53.366;-1.426;2023-05-22T10:29:24;75931.67;;;-216.83;35.01
50322;BME280;36227;53.366;-1.426;2023-05-22T10:31:50;75890.61;;;-216.83;36.97
50322;BME280;36227;53.366;-1.426;2023-05-22T10:34:17;75882.78;;;-216.83;35.98
50322;BME280;36227;53.366;-1.426;2023-05-22T10:36:46;75876.59;;;-216.83;35.71
50322;BME280;36227;53.366;-1.426;2023-05-22T10:39:10;75751.52;;;-217.07;36.11
50322;BME280;36227;53.366;-1.426;2023-05-22T10:41:26;75831.36;;;-217.07;36.31
50322;BME280;36227;53.366;-1.426;2023-05-22T10:43:51;75856.12;;;-216.83;37.64
50322;BME280;36227;53.366;-1.426;2023-05-22T10:46:17;75858.27;;;-216.83;37.52
50322;BME280;36227;53.366;-1.426;2023-05-22T10:48:45;75849.93;;;-216.83;37.71
50322;BME280;36227;53.366;-1.426;2023-05-22T10:51:07;75925.73;;;-217.30;36.65
50322;BME280;36227;53.366;-1.426;2023-05-22T10:53:32;75892.13;;;-216.83;36.23
50322;BME280;36227;53.366;-1.426;2023-05-22T10:55:57;75901.98;;;-216.59;34.88
50322;BME280;36227;53.366;-1.426;2023-05-22T10:58:27;75815.82;;;-216.83;34.65
50322;BME280;36227;53.366;-1.426;2023-05-22T11:00:47;75785.12;;;-216.83;35.69
50322;BME280;36227;53.366;-1.426;2023-05-22T11:03:13;75768.07;;;-217.07;35.98
50322;BME280;36227;53.366;-1.426;2023-05-22T11:05:38;75735.22;;;-217.30;36.00
50322;BME280;36227;53.366;-1.426;2023-05-22T11:08:10;75777.29;;;-216.83;36.42
50322;BME280;36227;53.366;-1.426;2023-05-22T11:13:01;75739.77;;;-217.30;36.21
50322;BME280;36227;53.366;-1.426;2023-05-22T11:17:47;75734.21;;;-217.07;37.21
50322;BME280;36227;53.366;-1.426;2023-05-22T11:20:12;75709.19;;;-217.30;37.31
50322;BME280;36227;53.366;-1.426;2023-05-22T11:22:35;75769.96;;;-216.83;37.99
50322;BME280;36227;53.366;-1.426;2023-05-22T11:24:59;75766.68;;;-216.83;36.82
50322;BME280;36227;53.366;-1.426;2023-05-22T11:27:24;75619.37;;;-217.54;36.55
50322;BME280;36227;53.366;-1.426;2023-05-22T11:29:49;75576.42;;;-217.54;36.27
50322;BME280;36227;53.366;-1.426;2023-05-22T11:32:14;75636.81;;;-217.54;36.58
50322;BME280;36227;53.366;-1.426;2023-05-22T11:34:39;75663.46;;;-217.30;37.46
50322;BME280;36227;53.366;-1.426;2023-05-22T11:37:05;75610.78;;;-218.02;38.96
50322;BME280;36227;53.366;-1.426;2023-05-22T11:39:31;75628.85;;;-217.78;39.69
50322;BME280;36227;53.366;-1.426;2023-05-22T11:41:54;75625.56;;;-217.78;41.47
50322;BME280;36227;53.366;-1.426;2023-05-22T11:44:19;75605.35;;;-217.54;40.74
50322;BME280;36227;53.366;-1.426;2023-05-22T11:46:44;75578.95;;;-217.78;42.24
50322;BME280;36227;53.366;-1.426;2023-05-22T11:49:09;75582.74;;;-217.78;47.21
50322;BME280;36227;53.366;-1.426;2023-05-22T11:51:37;75543.83;;;-217.78;44.42
50322;BME280;36227;53.366;-1.426;2023-05-22T11:54:00;75558.23;;;-217.78;49.09
50322;BME280;36227;53.366;-1.426;2023-05-22T11:56:25;75591.20;;;-217.78;46.30
50322;BME280;36227;53.366;-1.426;2023-05-22T11:58:50;75507.70;;;-218.02;47.40
50322;BME280;36227;53.366;-1.426;2023-05-22T12:01:16;75530.31;;;-218.50;48.49
50322;BME280;36227;53.366;-1.426;2023-05-22T12:03:40;75552.67;;;-217.78;50.62
50322;BME280;36227;53.366;-1.426;2023-05-22T12:06:06;75519.32;;;-218.26;48.57
50322;BME280;36227;53.366;-1.426;2023-05-22T12:08:31;75540.17;;;-218.02;53.03
50322;BME280;36227;53.366;-1.426;2023-05-22T12:10:56;75620.26;;;-217.78;49.29
50322;BME280;36227;53.366;-1.426;2023-05-22T12:13:24;75546.86;;;-217.78;47.84
50322;BME280;36227;53.366;-1.426;2023-05-22T12:15:46;75495.45;;;-218.02;54.03
50322;BME280;36227;53.366;-1.426;2023-05-22T12:18:11;75430.90;;;-218.02;52.25
50322;BME280;36227;53.366;-1.426;2023-05-22T12:20:41;75426.22;;;-218.02;52.28
50322;BME280;36227;53.366;-1.426;2023-05-22T12:23:02;75476.37;;;-218.26;53.81
50322;BME280;36227;53.366;-1.426;2023-05-22T12:25:34;75532.08;;;-218.74;57.19
50322;BME280;36227;53.366;-1.426;2023-05-22T12:27:54;75485.34;;;-218.02;58.77
50322;BME280;36227;53.366;-1.426;2023-05-22T12:30:19;75504.29;;;-218.02;62.29
50322;BME280;36227;53.366;-1.426;2023-05-22T12:32:47;75537.64;;;-217.30;62.17
50322;BME280;36227;53.366;-1.426;2023-05-22T12:35:14;75439.74;;;-218.26;56.96
50322;BME280;36227;53.366;-1.426;2023-05-22T12:37:34;75502.77;;;-217.78;57.88
50322;BME280;36227;53.366;-1.426;2023-05-22T12:40:01;75513.64;;;-217.54;58.34
50322;BME280;36227;53.366;-1.426;2023-05-22T12:42:25;75548.50;;;-217.54;60.25
50322;BME280;36227;53.366;-1.426;2023-05-22T12:44:51;75561.26;;;-217.30;62.16
50322;BME280;36227;53.366;-1.426;2023-05-22T12:47:15;75475.49;;;-218.02;61.91
50322;BME280;36227;53.366;-1.426;2023-05-22T12:49:39;75392.87;;;-218.50;61.88
50322;BME280;36227;53.366;-1.426;2023-05-22T12:52:04;75501.39;;;-217.78;63.80
50322;BME280;36227;53.366;-1.426;2023-05-22T12:54:29;75455.66;;;-218.02;62.26
50322;BME280;36227;53.366;-1.426;2023-05-22T12:56:55;75543.07;;;-217.30;65.10
50322;BME280;36227;53.366;-1.426;2023-05-22T12:59:20;75536.88;;;-217.54;66.00
50322;BME280;36227;53.366;-1.426;2023-05-22T13:01:45;75504.54;;;-217.78;65.51
50322;BME280;36227;53.366;-1.426;2023-05-22T13:04:10;75558.99;;;-217.30;66.60
50322;BME280;36227;53.366;-1.426;2023-05-22T13:06:36;75465.76;;;-217.78;64.68
50322;BME280;36227;53.366;-1.426;2023-05-22T13:09:01;75532.21;;;-217.30;64.97
50322;BME280;36227;53.366;-1.426;2023-05-22T13:11:26;75514.14;;;-218.26;66.14
50322;BME280;36227;53.366;-1.426;2023-05-22T13:13:51;75463.74;;;-218.02;65.66
50322;BME280;36227;53.366;-1.426;2023-05-22T13:16:16;75546.74;;;-217.30;66.87
50322;BME280;36227;53.366;-1.426;2023-05-22T13:18:41;75479.15;;;-217.30;66.43
50322;BME280;36227;53.366;-1.426;2023-05-22T13:21:06;75469.05;;;-217.78;65.17
50322;BME280;36227;53.366;-1.426;2023-05-22T13:23:31;75351.57;;;-218.02;63.19
50322;BME280;36227;53.366;-1.426;2023-05-22T13:25:56;75374.43;;;-218.26;61.80
50322;BME280;36227;53.366;-1.426;2023-05-22T13:28:21;75399.44;;;-217.78;61.11
50322;BME280;36227;53.366;-1.426;2023-05-22T13:30:46;75366.22;;;-218.02;61.98
50322;BME280;36227;53.366;-1.426;2023-05-22T13:33:12;75271.61;;;-218.74;59.56
50322;BME280;36227;53.366;-1.426;2023-05-22T13:35:37;75303.57;;;-219.22;61.22
50322;BME280;36227;53.366;-1.426;2023-05-22T13:38:02;75407.53;;;-218.26;62.29
50322;BME280;36227;53.366;-1.426;2023-05-22T13:40:28;75378.60;;;-218.26;60.89
50322;BME280;36227;53.366;-1.426;2023-05-22T13:42:52;75249.25;;;-218.74;57.99
50322;BME280;36227;53.366;-1.426;2023-05-22T13:45:18;75381.13;;;-218.26;59.68
50322;BME280;36227;53.366;-1.426;2023-05-22T13:47:43;75358.51;;;-218.26;61.31
50322;BME280;36227;53.366;-1.426;2023-05-22T13:50:08;75287.14;;;-218.26;59.80
50322;BME280;36227;53.366;-1.426;2023-05-22T13:52:33;75347.40;;;-218.02;59.76
50322;BME280;36227;53.366;-1.426;2023-05-22T13:54:59;75423.70;;;-217.78;62.78
50322;BME280;36227;53.366;-1.426;2023-05-22T13:57:24;75279.06;;;-218.74;59.09
50322;BME280;36227;53.366;-1.426;2023-05-22T13:59:48;75254.55;;;-218.98;57.00
50322;BME280;36227;53.366;-1.426;2023-05-22T14:02:14;75314.81;;;-218.26;57.36
50322;BME280;36227;53.366;-1.426;2023-05-22T14:04:39;75270.22;;;-218.74;58.84
50322;BME280;36227;53.366;-1.426;2023-05-22T14:07:04;75202.64;;;-218.74;55.05
50322;BME280;36227;53.366;-1.426;2023-05-22T14:09:30;75227.90;;;-218.74;53.31
50322;BME280;36227;53.366;-1.426;2023-05-22T14:11:55;75264.66;;;-218.74;54.87
50322;BME280;36227;53.366;-1.426;2023-05-22T14:14:20;75197.21;;;-218.74;53.49
50322;BME280;36227;53.366;-1.426;2023-05-22T14:16:45;75323.78;;;-218.50;57.58
50322;BME280;36227;53.366;-1.426;2023-05-22T14:19:11;75237.37;;;-218.26;56.80